Rogers Spring, Nevada Weather observations

Data are for 10 minute period ending at time listed.
 Day   Time   Solar   Ave.   Ave.  Ave.  Vector  Max.   Baro.   Total    
  of    of     Rad.   Air    Rel.  Wind   Wind   Wind  Press.  Precip.   
Year   Day            Temp.  Hum.  Speed  Dir.   Gust                    
2015   (PST)  Kw/m2    F      %     mph   deg.    mph    mb.     in.     
-------------------------------------------------------------------------
  90   12:50   0.88   88.0     9   12.4   180    20.5   928.9    0.00 
  90   13:00   0.80   87.3     9   11.8   178    21.9   928.7    0.00 
  90   13:10   0.88   88.1     9   11.5   168    20.2   928.6    0.00 
  90   13:20   0.85   88.1     9   12.3   162    20.8   928.3    0.00 
  90   13:30   0.78   87.7     9   13.2   162    24.8   928.1    0.00 
  90   13:40   0.80   88.2     9   12.0   163    20.8   928.0    0.00 
  90   13:50   0.81   88.5     9   11.1   156    23.6   927.8    0.00 
  90   14:00   0.78   88.9     8   11.9   173    22.3   927.6    0.00 
  90   14:10   0.75   88.8     8   12.8   167    23.1   927.4    0.00 
  90   14:20   0.72   89.0     8   12.3   165    22.4   927.2    0.00 
  90   14:30   0.69   89.3     8   11.2   163    24.0   927.2    0.00 
  90   14:40   0.66   89.2     8   12.0   178    24.8   927.1    0.00 
  90   14:50   0.64   88.7     8   12.8   172    20.4   926.9    0.00 
  90   15:00   0.61   88.7     9   11.7   169    21.2   926.7    0.00 
  90   15:10   0.57   88.2     9   12.7   164    23.7   926.6    0.00 
  90   15:20   0.53   89.1     9    9.3   180    17.2   926.5    0.00 
  90   15:30   0.47   88.2     9   10.3   177    19.1   926.5    0.00 
  90   15:40   0.35   87.5     9    9.8   172    18.0   926.3    0.00 
  90   15:50   0.37   87.1     9   11.5   169    22.3   926.2    0.00 
  90   16:00   0.41   87.4     9   11.6   171    21.3   926.1    0.00 
  90   16:10   0.37   87.2     9   11.9   165    19.8   926.1    0.00 
  90   16:20   0.34   86.9     9   10.7   168    18.5   926.0    0.00 
  90   16:30   0.30   86.8    10   10.3   175    17.7   925.9    0.00 
  90   16:40   0.26   86.4    10   10.2   164    19.2   925.8    0.00 
  90   16:50   0.23   85.6    10   11.4   171    21.3   925.8    0.00 
  90   17:00   0.19   85.2    10    9.5   175    16.7   925.8    0.00 
  90   17:10   0.16   84.9     9    9.7   170    17.8   925.7    0.00 
  90   17:20   0.13   84.2    10    9.6   169    16.6   925.6    0.00 
  90   17:30   0.10   83.3    10    8.6   167    14.5   925.6    0.00 
  90   17:40   0.07   82.5    10    8.5   170    14.6   925.6    0.00 
  90   17:50   0.04   81.3    10    6.9   168    12.5   925.7    0.00 
  90   18:00   0.02   79.8    11    6.4   173    10.9   925.6    0.00 
  90   18:10   0.01   78.9    11    7.8   166    12.8   925.5    0.00 
  90   18:20   0.00   78.4    11    7.6   158    12.1   925.5    0.00 
  90   18:30   0.00   77.9    12    7.6   159    12.4   925.6    0.00 
  90   18:40   0.00   77.3    13    7.5   156    12.4   925.6    0.00 
  90   18:50   0.00   76.6    12    7.0   162    14.0   925.8    0.00 
  90   19:00   0.00   77.3    12    9.3   160    15.4   925.8    0.00 
  90   19:10   0.00   76.9    12    8.4   174    15.7   925.8    0.00 
  90   19:20   0.00   76.1    13    8.2   171    16.8   925.9    0.00 
  90   19:30   0.00   75.7    13    9.2   167    15.6   926.1    0.00 
  90   19:40   0.00   74.5    14    7.4   174    13.1   926.2    0.00 
  90   19:50   0.00   73.9    14    7.8   169    13.4   926.2    0.00 
  90   20:00   0.00   74.0    14    7.2   169    13.1   926.4    0.00 
  90   20:10   0.00   73.7    14    7.6   159    13.7   926.5    0.00 
  90   20:20   0.00   73.8    14    9.0   154    15.6   926.7    0.00 
  90   20:30   0.00   74.0    14    8.7   149    15.3   927.0    0.00 
  90   20:40   0.00   74.1    14    6.8   136    13.7   927.3    0.00 
  90   20:50   0.00   73.8    14    6.9   137    13.1   927.5    0.00 
  90   21:00   0.00   73.3    14    6.3   134    11.4   927.7    0.00 
  90   21:10   0.00   72.8    14    6.5   166    12.4   927.8    0.00 
  90   21:20   0.00   69.5    17    4.2   184     9.7   927.8    0.00 
  90   21:30   0.00   67.3    18    3.5   176     5.6   927.8    0.00 
  90   21:40   0.00   66.6    19    3.0   132     5.5   928.0    0.00 
  90   21:50   0.00   66.9    19    4.8   155    10.0   928.2    0.00 
  90   22:00   0.00   66.8    19    6.2   171    11.0   928.3    0.00 
  90   22:10   0.00   66.3    19    4.5   142     8.7   928.6    0.00 
  90   22:20   0.00   65.6    20    4.4   153     9.4   928.9    0.00 
  90   22:30   0.00   64.7    20    2.3   167     7.7   929.0    0.00 
  90   22:40   0.00   63.8    21    2.5   127     5.0   929.0    0.00 
  90   22:50   0.00   63.8    21    3.0   124     5.0   929.1    0.00 
  90   23:00   0.00   63.9    21    2.5    56     3.9   929.6    0.00 
  90   23:10   0.00   63.1    22    2.4    93     6.6   929.7    0.00 
  90   23:20   0.00   65.2    20    3.0   161     9.3   929.8    0.00 
  90   23:30   0.00   63.4    21    4.0   196    10.3   929.9    0.00 
  90   23:40   0.00   63.2    21    5.5   199    11.2   930.0    0.00 
  90   23:50   0.00   64.3    21    6.0   184    12.4   929.9    0.00 
  91    0:00   0.00   63.7    21    4.1   182     6.5   930.2    0.00 
  91    0:10   0.00   61.8    22    3.5   171     5.8   930.2    0.00 
  91    0:20   0.00   60.1    24    2.2   175     4.2   930.4    0.00 
  91    0:30   0.00   56.7    28    1.7    20     4.8   930.6    0.00 
  91    0:40   0.00   55.6    29    2.2   109     3.6   930.6    0.00 
  91    0:50   0.00   54.4    29    2.5   177     4.2   930.4    0.00 
  91    1:00   0.00   53.7    31    2.1    42     6.4   930.7    0.00 
  91    1:10   0.00   54.1    30    1.3   156     3.9   930.5    0.00 
  91    1:20   0.00   52.8    32    1.7   132     3.4   930.4    0.00 
  91    1:30   0.00   51.1    34    1.5    36     4.2   930.6    0.00 
  91    1:40   0.00   50.2    35    1.1    51     2.1   930.5    0.00 
  91    1:50   0.00   53.6    31    2.0   151     3.7   930.4    0.00 
  91    2:00   0.00   52.3    31    2.1   209     4.7   930.4    0.00 
  91    2:10   0.00   50.5    30    2.1   295     4.2   930.6    0.00 
  91    2:20   0.00   50.2    24    4.1   302     6.3   930.7    0.00 
  91    2:30   0.00   51.9    20    3.4   316     4.7   930.7    0.00 
  91    2:40   0.00   51.3    20    2.0   319     3.5   930.7    0.00 
  91    2:50   0.00   50.8    21    2.3   336     3.7   930.8    0.00 
  91    3:00   0.00   52.1    20    4.1   309     8.6   930.9    0.00 
  91    3:10   0.00   55.5    19    6.9   308    10.9   931.1    0.00 
  91    3:20   0.00   56.2    18    5.3   314     9.0   931.3    0.00 
  91    3:30   0.00   56.0    19    5.4   320     8.9   931.4    0.00 
  91    3:40   0.00   55.4    19    6.3   316    13.2   931.4    0.00 
  91    3:50   0.00   56.9    19    7.3   319    12.8   931.4    0.00 
  91    4:00   0.00   56.4    20    5.3   325     8.0   931.5    0.00 
  91    4:10   0.00   55.9    21    6.7   326    12.3   931.5    0.00 
  91    4:20   0.00   57.3    21   10.0   310    15.8   931.4    0.00 
  91    4:30   0.00   57.3    21    9.8   313    15.7   931.5    0.00 
  91    4:40   0.00   57.2    21   10.2   313    15.0   931.7    0.00 
  91    4:50   0.00   57.4    21   10.9   311    16.5   931.7    0.00 
  91    5:00   0.00   57.4    21    9.9   318    17.7   931.9    0.00 
  91    5:10   0.00   56.4    22    8.3   334    14.8   932.2    0.00 
  91    5:20   0.00   55.4    23    6.9   329    10.9   932.4    0.00 
  91    5:30   0.00   54.3    24    7.3   321    11.2   932.4    0.00 
  91    5:40   0.01   53.3    25    7.9   312    12.2   932.5    0.00 
  91    5:50   0.02   54.1    25    8.1   316    11.8   932.8    0.00 
  91    6:00   0.03   54.3    25    8.2   320    14.7   932.9    0.00 
  91    6:10   0.06   54.9    25    8.0   321    12.3   933.1    0.00 
  91    6:20   0.09   56.0    24    7.5   323    13.4   933.2    0.00 
  91    6:30   0.12   56.6    23    6.3   309    13.1   933.4    0.00 
  91    6:40   0.15   57.2    23    6.0   290     9.1   933.7    0.00 
  91    6:50   0.18   58.0    23    8.2   296    13.2   933.8    0.00 
  91    7:00   0.22   58.7    22    8.2   312    14.0   933.8    0.00 
  91    7:10   0.25   59.8    21    7.6   304    12.3   934.0    0.00 
  91    7:20   0.29   60.8    20    7.6   303    11.7   934.0    0.00 
  91    7:30   0.34   62.0    19    7.7   320    11.3   934.0    0.00 
  91    7:40   0.37   63.1    17    8.1   310    12.8   934.3    0.00 
  91    7:50   0.41   63.9    16    7.8   310    11.4   934.6    0.00 
  91    8:00   0.44   64.3    16    6.8   316    10.8   934.6    0.00 
  91    8:10   0.48   65.3    17    6.0   325    11.4   934.8    0.00 
  91    8:20   0.51   66.3    17    5.7   335     9.1   934.8    0.00 
  91    8:30   0.55   66.7    17    6.8   350    11.6   934.7    0.00 
  91    8:40   0.58   66.9    17    5.9   346    11.2   934.9    0.00 
  91    8:50   0.61   67.3    16    6.3   336    10.7   935.0    0.00 
  91    9:00   0.63   67.8    16    6.7   313    10.9   935.0    0.00 
  91    9:10   0.66   68.5    15    6.7   331    14.0   935.0    0.00 
  91    9:20   0.69   69.4    14    6.1   333    11.2   934.9    0.00 
  91    9:30   0.71   69.4    14    6.5   309    12.1   934.9    0.00 
  91    9:40   0.74   70.4    14    6.1     3    12.3   934.8    0.00 
  91    9:50   0.76   70.9    13    5.6     3     9.9   934.8    0.00 
  91   10:00   0.78   71.3    13    6.8   358    11.5   934.8    0.00 
  91   10:10   0.81   70.7    12    5.7    11    11.0   934.7    0.00 
  91   10:20   0.82   71.4    12    4.8    36     9.4   934.6    0.00 
  91   10:30   0.82   71.7    12    5.5     2    11.0   934.4    0.00 
  91   10:40   0.81   72.2    12    4.6    34     9.7   934.2    0.00 
  91   10:50   0.86   72.9    12    2.9    51     8.7   934.1    0.00 
  91   11:00   0.84   73.3    12    5.1     2    12.0   933.9    0.00 
  91   11:10   0.87   73.5    11    4.5   359    11.5   933.7    0.00 
  91   11:20   0.86   73.4    11    4.1    17    12.5   933.5    0.00 
  91   11:30   0.89   73.4    11    5.3    37    10.4   933.2    0.00 
  91   11:40   0.91   73.3    10    3.4    61     8.9   932.9    0.00 
  91   11:50   0.89   74.2    10    5.9   356    11.0   932.8    0.00 
  91   12:00   0.90   74.6    10    2.8    60     6.4   932.7    0.00 
  91   12:10   0.83   75.1    10    3.9    19     8.8   932.6    0.00 
  91   12:20   0.89   74.8    10    3.1    52     9.6   932.4    0.00 
  91   12:30   0.91   75.8     9    4.7    34     9.8   932.2    0.00 
  91   12:40   0.86   77.1     9    3.3    24     9.3   932.0    0.00 

Return to Rogers Spring graphs page.


Western Regional Climate Center,wrcc@dri.edu